createdAt,value
2022-11-20T00:03:15.820Z,101281.22
2022-11-20T00:08:17.620Z,101278.59
2022-11-20T00:13:19.420Z,101284.97
2022-11-20T00:18:22.112Z,101296.63
2022-11-20T00:23:24.635Z,101288.28
2022-11-20T00:28:26.252Z,101282.47
2022-11-20T00:33:29.303Z,101282.00
2022-11-20T00:38:32.291Z,101283.78
2022-11-20T00:43:34.147Z,101293.22
2022-11-20T00:48:35.782Z,101279.66
2022-11-20T00:53:37.351Z,101274.66
2022-11-20T00:58:41.218Z,101266.13
2022-11-20T01:03:49.002Z,101267.38
2022-11-20T01:08:53.785Z,101260.66
2022-11-20T01:13:57.117Z,101264.56
2022-11-20T01:19:04.123Z,101251.56
2022-11-20T01:24:09.090Z,101264.03
2022-11-20T01:29:15.876Z,101257.44
2022-11-20T01:34:20.346Z,101255.59
2022-11-20T01:39:24.841Z,101252.38
2022-11-20T01:44:52.297Z,101243.25
2022-11-20T01:50:00.667Z,101230.59
2022-11-20T01:55:10.116Z,101227.53
2022-11-20T02:00:15.186Z,101223.56
2022-11-20T02:05:18.222Z,101234.03
2022-11-20T02:10:20.029Z,101236.31
2022-11-20T02:15:24.104Z,101235.63
2022-11-20T02:20:29.691Z,101234.53
2022-11-20T02:25:34.809Z,101220.69
2022-11-20T02:30:36.515Z,101213.72
2022-11-20T02:35:45.196Z,101217.41
2022-11-20T02:40:54.104Z,101213.94
2022-11-20T02:45:57.521Z,101209.38
2022-11-20T02:51:02.004Z,101208.72
2022-11-20T02:56:24.744Z,101199.50
2022-11-20T03:01:26.621Z,101204.22
2022-11-20T03:06:28.544Z,101202.50
2022-11-20T03:11:30.545Z,101199.25
2022-11-20T03:16:33.006Z,101188.97
2022-11-20T03:21:35.521Z,101180.59
2022-11-20T03:26:37.209Z,101179.75
2022-11-20T03:31:43.223Z,101172.91
2022-11-20T03:36:45.898Z,101157.00
2022-11-20T03:41:47.575Z,101158.06
2022-11-20T03:46:49.336Z,101149.38
2022-11-20T03:51:51.017Z,101152.03
2022-11-20T03:56:52.621Z,101145.81
2022-11-20T04:01:54.480Z,101138.09
2022-11-20T04:06:56.276Z,101131.19
2022-11-20T04:11:58.036Z,101115.13
2022-11-20T04:17:00.810Z,101115.91
2022-11-20T04:22:02.445Z,101118.75
2022-11-20T04:27:04.188Z,101107.50
2022-11-20T04:32:05.827Z,101109.34
2022-11-20T04:37:07.402Z,101105.56
2022-11-20T04:42:29.248Z,101103.81
2022-11-20T04:47:30.921Z,101098.09
2022-11-20T04:52:36.586Z,101088.91
2022-11-20T04:57:38.221Z,101089.63
2022-11-20T05:02:39.964Z,101079.22
2022-11-20T05:07:41.731Z,101085.31
2022-11-20T05:12:43.410Z,101092.78
2022-11-20T05:17:52.991Z,101091.78
2022-11-20T05:22:58.420Z,101115.41
2022-11-20T05:28:00.035Z,101087.47
2022-11-20T05:33:01.741Z,101091.03
2022-11-20T05:38:04.493Z,101105.44
2022-11-20T05:43:06.318Z,101100.50
2022-11-20T05:48:16.230Z,101094.41
2022-11-20T05:53:18.130Z,101095.41
2022-11-20T05:58:20.864Z,101090.06
2022-11-20T06:03:22.495Z,101086.06
2022-11-20T06:08:24.182Z,101089.66
2022-11-20T06:13:27.005Z,101079.66
2022-11-20T06:18:30.168Z,101076.00
2022-11-20T06:23:33.415Z,101059.88
2022-11-20T06:28:35.514Z,101055.66
2022-11-20T06:33:38.123Z,101067.97
2022-11-20T06:38:40.865Z,101048.63
2022-11-20T06:43:42.819Z,101044.94
2022-11-20T06:48:44.676Z,101033.78
2022-11-20T06:53:46.643Z,101035.97
2022-11-20T06:58:48.754Z,101040.72
2022-11-20T07:03:54.393Z,101048.97
2022-11-20T07:08:56.413Z,101042.25
2022-11-20T07:14:15.688Z,101042.69
2022-11-20T07:19:21.824Z,101047.44
2022-11-20T07:24:24.505Z,101051.13
2022-11-20T07:29:28.239Z,101031.31
2022-11-20T07:34:30.155Z,101032.91
2022-11-20T07:39:55.974Z,101029.13
2022-11-20T07:45:00.832Z,101026.88
2022-11-20T07:50:05.303Z,101031.84
2022-11-20T07:55:36.858Z,101029.25
2022-11-20T08:00:41.105Z,101041.16
2022-11-20T08:05:43.038Z,101027.94
2022-11-20T08:10:44.726Z,101029.69
2022-11-20T08:15:51.400Z,101024.19
2022-11-20T08:20:53.323Z,101035.56
2022-11-20T08:25:56.091Z,101023.41
2022-11-20T08:31:03.774Z,101022.34
2022-11-20T08:36:06.404Z,101021.88
2022-11-20T08:41:26.833Z,101014.50
2022-11-20T08:46:39.627Z,101007.97
2022-11-20T08:51:42.470Z,101007.31
2022-11-20T08:56:44.213Z,101000.41
2022-11-20T09:01:53.574Z,101002.50
2022-11-20T09:06:56.456Z,101002.78
2022-11-20T09:11:58.929Z,100991.94
2022-11-20T09:17:01.895Z,100988.56
2022-11-20T09:22:06.815Z,100971.13
2022-11-20T09:27:08.669Z,100976.78
2022-11-20T09:32:10.349Z,100959.91
2022-11-20T09:42:41.500Z,100977.75
2022-11-20T09:48:02.186Z,100952.34
2022-11-20T09:53:21.595Z,100948.91
2022-11-20T09:58:36.444Z,100939.59
2022-11-20T10:04:12.744Z,100923.34
2022-11-20T10:09:33.359Z,100920.16
2022-11-20T10:14:41.687Z,100903.94
2022-11-20T10:25:37.832Z,100889.22
2022-11-20T10:30:44.245Z,100878.03
2022-11-20T10:36:09.230Z,100861.03
2022-11-20T10:41:27.288Z,100845.03
2022-11-20T10:46:38.575Z,100845.72
2022-11-20T10:51:58.994Z,100832.69
2022-11-20T10:57:11.454Z,100821.81
2022-11-20T11:02:54.084Z,100808.53
2022-11-20T11:07:57.327Z,100807.78
2022-11-20T11:12:59.247Z,100806.19
2022-11-20T11:18:03.059Z,100794.00
2022-11-20T11:23:11.614Z,100780.19
2022-11-20T11:28:19.123Z,100759.09
2022-11-20T11:33:31.443Z,100755.78
2022-11-20T11:38:44.299Z,100747.91
2022-11-20T11:44:17.118Z,100740.13
2022-11-20T11:49:21.223Z,100721.38
2022-11-20T11:55:00.821Z,100710.25
2022-11-20T12:00:11.760Z,100688.56
2022-11-20T12:05:38.246Z,100667.88
2022-11-20T12:11:11.106Z,100678.66
2022-11-20T12:16:16.100Z,100671.38
2022-11-20T12:21:24.522Z,100656.72
2022-11-20T12:26:48.259Z,100649.16
2022-11-20T12:31:58.904Z,100629.59
2022-11-20T12:37:10.713Z,100618.94
2022-11-20T12:43:03.277Z,100607.09
2022-11-20T12:48:29.859Z,100587.03
2022-11-20T12:53:57.954Z,100604.72
2022-11-20T12:59:10.706Z,100598.28
2022-11-20T13:04:27.452Z,100592.41
2022-11-20T13:09:30.581Z,100602.13
2022-11-20T13:14:41.319Z,100584.84
2022-11-20T13:19:47.572Z,100572.56
2022-11-20T13:24:54.544Z,100580.09
2022-11-20T13:30:03.498Z,100573.34
2022-11-20T13:35:06.562Z,100553.91
2022-11-20T13:40:13.811Z,100533.34
2022-11-20T13:45:32.828Z,100507.13
2022-11-20T13:50:37.480Z,100492.97
2022-11-20T13:55:48.631Z,100494.81
2022-11-20T14:01:02.067Z,100492.41
2022-11-20T14:06:14.760Z,100498.66
2022-11-20T14:11:19.967Z,100489.81
2022-11-20T14:16:22.441Z,100486.25
2022-11-20T14:21:28.286Z,100474.56
2022-11-20T14:26:30.210Z,100479.31
2022-11-20T14:31:33.119Z,100473.88
2022-11-20T14:36:34.916Z,100465.91
2022-11-20T14:41:36.587Z,100459.78
2022-11-20T14:46:38.397Z,100446.09
2022-11-20T14:51:44.238Z,100441.38
2022-11-20T14:57:05.105Z,100433.22
2022-11-20T15:02:11.523Z,100424.38
2022-11-20T15:07:29.489Z,100415.94
2022-11-20T15:12:33.666Z,100399.41
2022-11-20T15:17:41.082Z,100386.09
2022-11-20T15:22:43.138Z,100377.81
2022-11-20T15:27:46.661Z,100378.78
2022-11-20T15:32:48.719Z,100381.09
2022-11-20T15:37:51.323Z,100375.81
2022-11-20T15:43:09.726Z,100375.25
2022-11-20T15:48:20.398Z,100366.66
2022-11-20T15:53:22.244Z,100362.78
2022-11-20T15:58:25.225Z,100355.22
2022-11-20T16:03:29.170Z,100352.34
2022-11-20T16:08:30.937Z,100344.03
2022-11-20T16:13:52.186Z,100333.16
2022-11-20T16:18:53.960Z,100302.88
2022-11-20T16:24:04.800Z,100272.00
2022-11-20T16:29:07.994Z,100288.00
2022-11-20T16:34:12.342Z,100308.72
2022-11-20T16:39:19.006Z,100311.41
2022-11-20T16:44:27.086Z,100319.84
2022-11-20T16:49:33.990Z,100295.84
2022-11-20T16:54:36.169Z,100308.84
2022-11-20T16:59:38.174Z,100297.69
2022-11-20T17:04:41.465Z,100292.13
2022-11-20T17:10:02.037Z,100271.63
2022-11-20T17:15:05.741Z,100268.19
2022-11-20T17:20:38.497Z,100274.63
2022-11-20T17:25:40.777Z,100263.91
2022-11-20T17:30:45.071Z,100281.56
2022-11-20T17:35:47.183Z,100276.16
2022-11-20T17:40:49.154Z,100275.75
2022-11-20T17:45:50.810Z,100279.56
2022-11-20T17:50:52.616Z,100285.22
2022-11-20T17:56:16.632Z,100283.84
2022-11-20T18:01:22.069Z,100276.16
2022-11-20T18:06:26.420Z,100284.44
2022-11-20T18:11:30.587Z,100298.88
2022-11-20T18:16:37.699Z,100293.78
2022-11-20T18:21:45.462Z,100288.06
2022-11-20T18:26:47.136Z,100269.78
2022-11-20T18:31:50.059Z,100272.50
2022-11-20T18:36:51.864Z,100290.91
2022-11-20T18:42:13.284Z,100289.34
2022-11-20T18:47:17.896Z,100280.66
2022-11-20T18:52:22.862Z,100303.53
2022-11-20T18:57:27.204Z,100311.78
2022-11-20T19:02:29.259Z,100257.91
2022-11-20T19:07:41.667Z,100276.25
2022-11-20T19:12:43.563Z,100283.22
2022-11-20T19:17:46.397Z,100281.41
2022-11-20T19:22:51.363Z,100278.75
2022-11-20T19:27:52.980Z,100289.03
2022-11-20T19:32:58.145Z,100295.16
2022-11-20T19:38:05.215Z,100285.72
2022-11-20T19:43:09.370Z,100301.97
2022-11-20T19:48:13.101Z,100310.22
2022-11-20T19:53:15.082Z,100316.59
2022-11-20T19:58:16.844Z,100318.19
2022-11-20T20:03:18.745Z,100308.91
2022-11-20T20:08:20.499Z,100305.16
2022-11-20T20:13:22.171Z,100309.59
2022-11-20T20:18:23.943Z,100305.19
2022-11-20T20:23:25.654Z,100299.09
2022-11-20T20:28:28.003Z,100324.53
2022-11-20T20:33:30.001Z,100323.88
2022-11-20T20:38:31.672Z,100321.91
2022-11-20T20:43:53.429Z,100334.81
2022-11-20T20:48:56.238Z,100334.13
2022-11-20T20:53:57.958Z,100336.13
2022-11-20T20:58:59.650Z,100349.38
2022-11-20T21:04:01.931Z,100351.47
2022-11-20T21:09:03.911Z,100351.47
2022-11-20T21:14:05.487Z,100352.91
2022-11-20T21:19:08.277Z,100361.81
2022-11-20T21:24:09.906Z,100375.00
2022-11-20T21:29:11.737Z,100380.09
2022-11-20T21:34:14.589Z,100367.53
2022-11-20T21:39:21.774Z,100368.22
2022-11-20T21:44:31.300Z,100382.13
2022-11-20T21:49:34.656Z,100376.13
2022-11-20T21:54:38.550Z,100400.63
2022-11-20T21:59:40.310Z,100396.34
2022-11-20T22:04:42.091Z,100394.16
2022-11-20T22:09:45.812Z,100397.81
2022-11-20T22:14:49.670Z,100396.97
2022-11-20T22:19:51.409Z,100399.84
2022-11-20T22:24:53.079Z,100416.41
2022-11-20T22:29:54.829Z,100426.81
2022-11-20T22:34:56.610Z,100430.25
2022-11-20T22:39:58.431Z,100426.34
2022-11-20T22:45:00.136Z,100424.09
2022-11-20T22:50:02.059Z,100419.59
2022-11-20T22:55:05.050Z,100432.78
2022-11-20T23:00:08.514Z,100436.09
2022-11-20T23:05:10.247Z,100445.84
2022-11-20T23:10:13.608Z,100465.03
2022-11-20T23:15:15.309Z,100459.44
2022-11-20T23:20:17.188Z,100474.44
2022-11-20T23:25:21.952Z,100471.34
2022-11-20T23:30:23.604Z,100466.22
2022-11-20T23:35:25.334Z,100472.78
2022-11-20T23:40:26.978Z,100484.81
2022-11-20T23:45:28.745Z,100477.38
2022-11-20T23:50:30.502Z,100492.53
2022-11-20T23:55:33.022Z,100497.00
